Time;durP1;ratioP1;P1;durP2;ratioP2;P2;SDS_P1;SDS_P2;PMS_P1;PMS_P2;Temp;Humidity;BMP_temperature;BMP_pressure;BME280_temperature;BME280_humidity;BME280_pressure;Samples;Min_cycle;Max_cycle;Signal;HPM_P1;HPM_P2
2022/02/11 00:02:13;;;;;;;5.28;2.50;;;26.80;66.10;;;;;;4114988;28;20519;-72
2022/02/11 00:07:03;;;;;;;6.55;2.60;;;26.90;66.20;;;;;;4114121;28;20513;-74
2022/02/11 00:09:26;;;;;;;5.30;2.55;;;26.90;66.20;;;;;;4114316;28;20494;-75
2022/02/11 00:11:49;;;;;;;7.90;2.58;;;26.90;66.20;;;;;;4101734;28;20105;-74
2022/02/11 00:14:11;;;;;;;5.33;2.70;;;26.90;66.30;;;;;;4114862;28;20081;-72
2022/02/11 00:16:36;;;;;;;7.43;3.15;;;26.90;66.40;;;;;;4097903;28;20137;-74
2022/02/11 00:18:59;;;;;;;9.00;2.70;;;26.90;66.30;;;;;;4112332;28;20126;-74
2022/02/11 00:21:22;;;;;;;5.80;3.00;;;26.90;66.20;;;;;;4112510;28;20050;-76
2022/02/11 00:23:44;;;;;;;5.97;2.70;;;26.90;66.30;;;;;;4113188;28;20069;-72
2022/02/11 00:26:08;;;;;;;6.85;2.83;;;26.90;66.30;;;;;;4114938;28;20538;-77
2022/02/11 00:33:55;;;;;;;9.48;2.47;;;27.00;66.90;;;;;;4112333;28;20049;-72
2022/02/11 00:36:21;;;;;;;4.40;2.20;;;27.10;67.00;;;;;;4112714;28;20054;-74
2022/02/11 00:39:02;;;;;;;7.07;2.50;;;27.10;66.80;;;;;;4113874;28;20117;-73
2022/02/11 00:47:08;;;;;;;3.42;2.05;;;27.20;66.60;;;;;;4112903;28;20631;-74
2022/02/11 01:02:58;;;;;;;4.75;1.92;;;27.40;66.60;;;;;;4113832;28;20142;-75
2022/02/11 01:05:21;;;;;;;3.63;2.13;;;27.40;66.70;;;;;;4113654;28;20042;-74
2022/02/11 01:07:44;;;;;;;4.35;2.47;;;27.40;66.40;;;;;;4114619;28;20482;-74
2022/02/11 01:10:07;;;;;;;6.47;1.98;;;27.40;66.50;;;;;;4113814;28;20114;-74
2022/02/11 01:12:30;;;;;;;5.00;2.20;;;27.40;66.50;;;;;;4114733;28;20042;-74
2022/02/11 01:14:53;;;;;;;4.05;2.10;;;27.40;66.50;;;;;;4115304;28;20065;-69
2022/02/11 01:17:28;;;;;;;4.20;2.15;;;27.40;66.50;;;;;;4116174;28;20563;-70
2022/02/11 01:20:03;;;;;;;3.88;1.90;;;27.40;66.50;;;;;;4116133;28;20047;-73
2022/02/11 01:35:21;;;;;;;5.00;2.38;;;27.40;66.10;;;;;;4117163;28;20465;-73
2022/02/11 01:38:30;;;;;;;3.83;2.03;;;27.40;66.00;;;;;;4114862;28;20070;-73
2022/02/11 01:43:47;;;;;;;4.57;2.22;;;27.40;65.80;;;;;;4116376;28;20066;-68
2022/02/11 02:01:42;;;;;;;4.82;2.15;;;27.30;65.70;;;;;;4107530;28;20039;-74
2022/02/11 02:09:05;;;;;;;4.57;2.03;;;27.40;66.10;;;;;;4107349;28;20400;-73
2022/02/11 02:59:22;;;;;;;3.45;1.77;;;27.90;65.30;;;;;;4104410;28;20054;-70
2022/02/11 03:02:11;;;;;;;2.83;1.55;;;27.90;65.10;;;;;;4122413;28;20041;-68
2022/02/11 03:56:03;;;;;;;8.55;2.70;;;28.30;64.30;;;;;;4126309;28;20046;-76
2022/02/11 04:25:53;;;;;;;7.30;3.10;;;28.10;62.90;;;;;;4133122;28;20050;-74
2022/02/11 04:55:04;;;;;;;5.30;2.45;;;27.90;62.30;;;;;;4118517;28;22188;-72
2022/02/11 05:00:11;;;;;;;5.18;2.83;;;27.90;62.60;;;;;;4123678;28;20102;-74
2022/02/11 05:02:35;;;;;;;5.05;2.83;;;27.90;63.10;;;;;;4127118;28;20045;-71
2022/02/11 05:04:58;;;;;;;7.28;2.78;;;27.90;63.00;;;;;;4132349;28;20385;-72
2022/02/11 05:07:22;;;;;;;5.47;2.50;;;27.80;63.30;;;;;;4125255;28;21371;-73
2022/02/11 05:09:44;;;;;;;;;;;27.80;63.40;;;;;;4131727;28;20128;-73
2022/02/11 05:12:06;;;;;;;5.72;2.72;;;27.80;62.90;;;;;;4126745;28;20300;-72
2022/02/11 05:14:29;;;;;;;7.50;3.10;;;27.80;63.10;;;;;;4139051;28;21980;-75
2022/02/11 05:16:51;;;;;;;8.30;2.92;;;27.80;63.00;;;;;;4147265;28;20073;-83
2022/02/11 05:19:14;;;;;;;5.00;2.83;;;27.80;63.60;;;;;;4132673;28;20041;-78
2022/02/11 05:21:36;;;;;;;7.05;3.20;;;27.70;63.10;;;;;;4130037;28;21060;-84
2022/02/11 05:23:59;;;;;;;6.45;3.08;;;27.70;63.20;;;;;;4140920;28;20038;-77
2022/02/11 05:26:21;;;;;;;6.63;3.28;;;27.70;63.20;;;;;;4133705;28;20041;-83
2022/02/11 05:28:44;;;;;;;9.70;3.30;;;27.70;63.20;;;;;;4128266;28;20033;-85
2022/02/11 05:31:07;;;;;;;6.87;3.00;;;27.70;63.30;;;;;;4130219;28;20130;-74
2022/02/11 05:33:30;;;;;;;8.00;2.70;;;27.70;63.50;;;;;;4124990;28;20041;-70
2022/02/11 05:35:52;;;;;;;8.43;2.83;;;27.70;63.40;;;;;;4119790;28;20057;-72
2022/02/11 05:38:15;;;;;;;9.05;2.70;;;27.70;63.40;;;;;;4132241;28;20076;-74
2022/02/11 05:40:41;;;;;;;6.63;2.63;;;27.60;63.30;;;;;;4129026;28;20026;-74
2022/02/11 05:43:03;;;;;;;6.28;2.42;;;27.60;63.30;;;;;;4120610;28;20451;-73
2022/02/11 05:45:26;;;;;;;7.72;2.72;;;27.60;63.30;;;;;;4124112;28;21422;-74
2022/02/11 05:47:49;;;;;;;6.72;2.78;;;27.60;63.50;;;;;;4125042;28;20112;-71
2022/02/11 05:50:11;;;;;;;6.00;3.15;;;27.50;63.50;;;;;;4119530;28;20032;-73
2022/02/11 05:52:35;;;;;;;6.10;3.20;;;27.50;63.50;;;;;;4121403;28;20077;-73
2022/02/11 05:54:58;;;;;;;6.43;2.95;;;27.60;63.80;;;;;;4124982;28;20093;-74
2022/02/11 05:57:20;;;;;;;6.78;3.13;;;27.60;63.90;;;;;;4120264;28;20056;-72
2022/02/11 05:59:42;;;;;;;6.82;2.88;;;27.60;63.80;;;;;;4119611;28;22067;-72
2022/02/11 06:02:05;;;;;;;6.93;3.20;;;27.60;64.50;;;;;;4123965;28;20049;-74
2022/02/11 06:04:28;;;;;;;8.07;3.58;;;27.60;64.00;;;;;;4119293;28;20134;-73
2022/02/11 06:06:51;;;;;;;9.55;3.58;;;27.60;63.80;;;;;;4131805;28;20100;-74
2022/02/11 06:09:17;;;;;;;7.13;3.15;;;27.60;64.20;;;;;;4129720;28;20456;-74
2022/02/11 06:11:40;;;;;;;11.48;3.45;;;27.60;64.10;;;;;;4118997;28;20053;-74
2022/02/11 06:14:02;;;;;;;7.05;3.08;;;27.60;64.20;;;;;;4116618;28;21774;-73
2022/02/11 06:16:25;;;;;;;7.13;2.85;;;27.50;64.50;;;;;;4126717;28;20071;-72
2022/02/11 06:18:48;;;;;;;7.38;2.75;;;27.60;64.40;;;;;;4119619;28;20026;-72
2022/02/11 06:21:11;;;;;;;6.75;3.08;;;27.50;64.30;;;;;;4110773;28;20038;-72
2022/02/11 06:23:33;;;;;;;9.23;2.70;;;27.60;64.10;;;;;;4120728;28;20403;-70
2022/02/11 06:25:56;;;;;;;7.13;2.92;;;27.60;64.10;;;;;;4114398;28;20144;-77
2022/02/11 06:28:18;;;;;;;11.43;3.35;;;27.50;63.90;;;;;;4113221;28;21198;-77
2022/02/11 06:30:41;;;;;;;7.63;3.00;;;27.50;63.80;;;;;;4114179;28;20037;-73
2022/02/11 06:33:03;;;;;;;9.30;3.53;;;27.50;63.80;;;;;;4121414;28;20092;-75
2022/02/11 06:35:26;;;;;;;10.63;3.03;;;27.50;63.90;;;;;;4119955;28;20046;-78
2022/02/11 06:37:50;;;;;;;7.03;2.83;;;27.50;63.90;;;;;;4121433;28;20052;-74
2022/02/11 06:40:16;;;;;;;8.52;3.03;;;27.40;64.00;;;;;;4121973;28;20564;-74
2022/02/11 06:42:39;;;;;;;9.57;2.83;;;27.40;64.30;;;;;;4128165;28;20557;-75
2022/02/11 06:45:02;;;;;;;6.53;2.67;;;27.40;64.20;;;;;;4123639;28;20135;-76
2022/02/11 06:47:25;;;;;;;4.37;2.43;;;27.40;64.00;;;;;;4119005;28;20068;-82
2022/02/11 06:49:50;;;;;;;9.50;3.03;;;27.50;64.00;;;;;;4117233;28;20070;-78
2022/02/11 06:52:12;;;;;;;7.82;2.47;;;27.50;64.10;;;;;;4122362;28;20057;-73
2022/02/11 06:54:36;;;;;;;9.77;2.72;;;27.50;63.80;;;;;;4118469;28;20115;-74
2022/02/11 06:56:58;;;;;;;6.20;2.80;;;27.50;63.50;;;;;;4112426;28;20045;-76
2022/02/11 06:59:21;;;;;;;6.05;2.70;;;27.40;63.90;;;;;;4129848;28;20044;-76
2022/02/11 07:01:43;;;;;;;7.80;2.63;;;27.40;63.00;;;;;;4117617;28;20892;-74
2022/02/11 07:04:06;;;;;;;6.50;3.00;;;27.40;62.70;;;;;;4112829;28;20034;-75
2022/02/11 07:06:28;;;;;;;7.53;2.70;;;27.40;62.50;;;;;;4110011;28;20114;-74
2022/02/11 07:08:51;;;;;;;6.47;3.03;;;27.40;62.40;;;;;;4110079;28;20069;-74
2022/02/11 07:11:13;;;;;;;9.98;3.13;;;27.40;62.10;;;;;;4101169;28;20049;-73
2022/02/11 07:13:36;;;;;;;5.35;2.85;;;27.40;62.20;;;;;;4100345;28;20041;-72
2022/02/11 07:15:59;;;;;;;6.63;2.85;;;27.30;62.20;;;;;;4107857;28;20632;-71
2022/02/11 07:18:21;;;;;;;;;;;27.30;62.50;;;;;;4100070;28;20327;-73
2022/02/11 07:20:44;;;;;;;7.82;2.60;;;27.30;62.20;;;;;;4098708;28;19917;-69
2022/02/11 07:23:07;;;;;;;5.55;2.65;;;27.30;62.00;;;;;;4119268;28;20887;-70
2022/02/11 07:25:30;;;;;;;4.55;2.60;;;27.30;62.40;;;;;;4112364;28;20458;-68
2022/02/11 07:27:52;;;;;;;7.20;2.80;;;27.30;62.50;;;;;;4095151;28;20049;-70
2022/02/11 07:30:15;;;;;;;6.35;2.88;;;27.30;63.20;;;;;;4103868;28;20038;-70
2022/02/11 07:32:38;;;;;;;5.07;2.30;;;27.30;63.50;;;;;;4101013;28;20033;-70
2022/02/11 07:35:02;;;;;;;6.03;2.60;;;27.30;63.40;;;;;;4096662;28;20037;-69
2022/02/11 07:37:25;;;;;;;5.78;2.25;;;27.30;63.50;;;;;;4104089;28;20052;-71
2022/02/11 07:39:49;;;;;;;6.97;2.67;;;27.30;63.30;;;;;;4103461;28;20030;-70
2022/02/11 07:42:12;;;;;;;4.75;1.90;;;27.30;63.40;;;;;;4096876;28;20046;-67
2022/02/11 07:44:34;;;;;;;4.13;2.17;;;27.30;63.40;;;;;;4100186;28;20041;-69
2022/02/11 07:46:57;;;;;;;3.53;2.00;;;27.30;63.60;;;;;;4117677;28;20037;-68
2022/02/11 07:49:19;;;;;;;5.60;2.03;;;27.30;63.70;;;;;;4095685;28;20141;-68
2022/02/11 07:51:42;;;;;;;3.45;2.10;;;27.30;63.70;;;;;;4094388;28;20048;-68
2022/02/11 07:54:04;;;;;;;3.72;2.28;;;27.30;63.70;;;;;;4106304;28;20053;-67
2022/02/11 07:56:27;;;;;;;6.13;2.33;;;27.30;63.80;;;;;;4095753;28;20045;-75
2022/02/11 07:58:51;;;;;;;5.97;2.08;;;27.30;63.60;;;;;;4097537;28;20080;-68
2022/02/11 08:01:14;;;;;;;5.35;2.40;;;27.30;63.50;;;;;;4102204;28;20057;-67
2022/02/11 08:03:37;;;;;;;5.65;2.60;;;27.30;63.60;;;;;;4096540;28;20026;-68
2022/02/11 08:06:00;;;;;;;5.80;2.45;;;27.30;63.90;;;;;;4095589;28;20049;-69
2022/02/11 08:08:30;;;;;;;6.05;2.50;;;27.30;63.80;;;;;;4104288;28;20033;-68
2022/02/11 08:10:53;;;;;;;3.58;2.00;;;27.30;64.00;;;;;;4095262;28;20136;-67
2022/02/11 08:13:16;;;;;;;6.50;2.33;;;27.30;63.90;;;;;;4098018;28;20046;-70
2022/02/11 08:15:38;;;;;;;5.03;2.03;;;27.30;64.00;;;;;;4104796;28;20041;-70
2022/02/11 08:18:01;;;;;;;5.13;1.98;;;27.20;63.90;;;;;;4097913;28;20057;-70
2022/02/11 08:20:24;;;;;;;5.45;2.78;;;27.30;64.00;;;;;;4095230;28;20148;-69
2022/02/11 08:22:47;;;;;;;5.57;2.20;;;27.20;63.90;;;;;;4103473;28;20046;-71
2022/02/11 08:25:09;;;;;;;5.63;2.15;;;27.30;64.10;;;;;;4098145;28;20478;-70
2022/02/11 08:27:32;;;;;;;5.25;2.30;;;27.20;64.10;;;;;;4096463;28;20533;-70
2022/02/11 08:29:54;;;;;;;4.85;1.75;;;27.20;64.10;;;;;;4105413;28;20072;-69
2022/02/11 08:32:19;;;;;;;4.47;2.22;;;27.20;64.20;;;;;;4099484;28;20184;-69
2022/02/11 08:34:42;;;;;;;6.50;2.22;;;27.20;64.20;;;;;;4097320;28;20038;-73
2022/02/11 08:37:04;;;;;;;3.88;2.10;;;27.20;64.10;;;;;;4108607;28;20167;-78
2022/02/11 08:39:27;;;;;;;8.00;2.40;;;27.20;64.20;;;;;;4101400;28;20181;-83
2022/02/11 08:41:53;;;;;;;6.00;2.28;;;27.20;64.20;;;;;;4102514;28;20413;-73
2022/02/11 08:44:15;;;;;;;6.13;2.28;;;27.20;64.00;;;;;;4109411;28;20075;-75
2022/02/11 08:46:38;;;;;;;5.00;1.73;;;27.20;63.90;;;;;;4101208;28;20037;-76
2022/02/11 08:49:01;;;;;;;4.72;1.85;;;27.20;63.90;;;;;;4115607;28;20056;-78
2022/02/11 08:51:23;;;;;;;5.35;1.70;;;27.20;64.00;;;;;;4116093;28;20057;-76
2022/02/11 08:53:48;;;;;;;4.57;1.88;;;27.20;64.00;;;;;;4106495;28;20794;-71
2022/02/11 08:56:11;;;;;;;4.65;1.80;;;27.20;63.90;;;;;;4108216;28;20037;-71
2022/02/11 08:58:37;;;;;;;3.47;1.67;;;27.20;63.80;;;;;;4119181;28;20048;-72
2022/02/11 09:01:00;;;;;;;4.47;2.10;;;27.20;63.70;;;;;;4109619;28;20817;-73
2022/02/11 09:03:23;;;;;;;7.38;1.77;;;27.20;63.90;;;;;;4111658;28;20042;-70
2022/02/11 09:05:46;;;;;;;4.53;1.70;;;27.20;63.80;;;;;;4120839;28;20041;-72
2022/02/11 09:08:09;;;;;;;5.25;2.08;;;27.20;63.10;;;;;;4113282;28;20717;-71
2022/02/11 09:10:32;;;;;;;4.88;1.85;;;27.20;62.60;;;;;;4111197;28;20038;-75
2022/02/11 09:13:00;;;;;;;5.93;2.05;;;27.20;62.50;;;;;;4116252;28;20048;-72
2022/02/11 09:15:24;;;;;;;4.80;1.90;;;27.10;62.10;;;;;;4106489;28;20858;-69
2022/02/11 09:17:47;;;;;;;3.80;1.92;;;27.10;62.00;;;;;;4110293;28;20057;-71
2022/02/11 09:20:10;;;;;;;4.47;1.83;;;27.10;61.70;;;;;;4125319;28;20029;-70
2022/02/11 09:22:33;;;;;;;6.25;2.33;;;27.10;61.80;;;;;;4107844;28;20042;-72
2022/02/11 09:24:56;;;;;;;5.15;2.05;;;27.10;61.60;;;;;;4110685;28;20045;-71
2022/02/11 09:27:19;;;;;;;6.15;2.25;;;27.00;61.40;;;;;;4113981;28;20026;-68
2022/02/11 09:29:42;;;;;;;5.90;2.20;;;27.00;61.60;;;;;;4107601;28;20055;-76
2022/02/11 09:32:06;;;;;;;4.32;1.80;;;27.00;61.50;;;;;;4109240;28;20045;-75
2022/02/11 09:34:28;;;;;;;;;;;27.00;61.20;;;;;;4117342;28;20034;-80
2022/02/11 09:36:51;;;;;;;4.97;2.17;;;26.90;61.70;;;;;;4112725;28;20609;-75
2022/02/11 09:39:14;;;;;;;3.85;1.80;;;26.90;61.30;;;;;;4118559;28;20100;-76
2022/02/11 09:41:38;;;;;;;5.57;2.10;;;26.90;61.40;;;;;;4121779;28;20045;-75
2022/02/11 09:44:01;;;;;;;6.40;2.20;;;26.90;61.30;;;;;;4113822;28;21232;-77
2022/02/11 09:46:24;;;;;;;5.78;2.30;;;26.90;61.30;;;;;;4117195;28;21500;-76
2022/02/11 09:48:48;;;;;;;3.88;2.22;;;26.90;62.20;;;;;;4121303;28;20132;-79
2022/02/11 09:51:11;;;;;;;3.67;2.00;;;26.80;61.10;;;;;;4114928;28;20057;-75
2022/02/11 09:53:33;;;;;;;4.82;1.77;;;26.80;61.10;;;;;;4119167;28;20140;-76
2022/02/11 09:55:57;;;;;;;5.28;1.70;;;26.80;60.90;;;;;;4122813;28;20125;-75
2022/02/11 09:58:20;;;;;;;3.13;1.92;;;26.80;60.90;;;;;;4110596;28;20061;-75
2022/02/11 10:00:48;;;;;;;4.03;1.70;;;26.80;61.10;;;;;;4112053;28;20072;-76
2022/02/11 10:03:30;;;;;;;3.22;1.70;;;26.70;61.20;;;;;;4111339;28;20111;-76
2022/02/11 10:05:58;;;;;;;4.35;1.63;;;26.70;61.20;;;;;;4116177;28;20038;-74
2022/02/11 10:08:23;;;;;;;5.18;1.90;;;26.70;61.20;;;;;;4108130;28;20045;-75
2022/02/11 10:10:52;;;;;;;5.40;2.20;;;26.70;61.10;;;;;;4118207;28;20033;-75
2022/02/11 10:13:25;;;;;;;6.00;1.98;;;26.70;61.00;;;;;;4108934;28;20402;-74
2022/02/11 10:15:54;;;;;;;4.03;1.70;;;26.60;61.30;;;;;;4114564;28;20084;-75
2022/02/11 10:18:26;;;;;;;5.57;2.00;;;26.60;61.20;;;;;;4108256;28;20529;-76
2022/02/11 10:20:51;;;;;;;3.78;1.60;;;26.60;61.00;;;;;;4112572;28;20048;-73
2022/02/11 10:23:20;;;;;;;5.32;2.10;;;26.60;61.30;;;;;;4108356;28;20517;-78
2022/02/11 10:26:07;;;;;;;5.93;1.70;;;26.50;61.00;;;;;;4115614;28;20049;-76
2022/02/11 10:28:43;;;;;;;5.75;1.65;;;26.50;61.20;;;;;;4111530;28;20112;-75
2022/02/11 10:31:21;;;;;;;6.22;1.80;;;26.50;61.10;;;;;;4113284;28;20252;-76
2022/02/11 10:33:54;;;;;;;3.25;1.52;;;26.50;61.40;;;;;;4106484;28;20052;-77
2022/02/11 10:36:28;;;;;;;4.38;1.77;;;26.50;61.50;;;;;;4106617;28;20177;-78
2022/02/11 10:39:08;;;;;;;;;;;26.50;61.50;;;;;;4114781;28;20056;-76
2022/02/11 10:41:32;;;;;;;3.47;1.83;;;26.50;61.70;;;;;;4096631;28;20433;-76
2022/02/11 10:44:06;;;;;;;3.72;1.98;;;26.50;61.60;;;;;;4107502;28;20048;-77
2022/02/11 10:46:35;;;;;;;5.90;2.50;;;26.50;61.70;;;;;;4103626;28;21963;-77
2022/02/11 10:49:01;;;;;;;6.00;2.30;;;26.40;61.60;;;;;;4092869;28;20186;-76
2022/02/11 10:51:24;;;;;;;3.35;1.60;;;26.40;61.80;;;;;;4101285;28;20120;-76
2022/02/11 10:53:46;;;;;;;5.45;2.15;;;26.40;61.40;;;;;;4109680;28;20117;-78
2022/02/11 10:56:09;;;;;;;4.65;1.80;;;26.40;61.50;;;;;;4103500;28;20080;-79
2022/02/11 10:58:32;;;;;;;3.67;1.67;;;26.40;61.60;;;;;;4104585;28;20046;-76
2022/02/11 11:01:01;;;;;;;5.07;2.38;;;26.40;61.50;;;;;;4113789;28;20282;-71
2022/02/11 11:03:24;;;;;;;5.20;2.40;;;26.40;61.50;;;;;;4102756;28;20549;-73
2022/02/11 11:05:47;;;;;;;5.32;1.90;;;26.30;61.40;;;;;;4104768;28;20076;-73
2022/02/11 11:08:12;;;;;;;4.00;1.73;;;26.30;61.50;;;;;;4112684;28;20919;-72
2022/02/11 11:10:36;;;;;;;4.97;1.80;;;26.30;61.40;;;;;;4102703;28;20853;-72
2022/02/11 11:12:58;;;;;;;;;;;26.30;61.40;;;;;;4106765;28;20048;-72
2022/02/11 11:15:22;;;;;;;3.95;1.83;;;26.30;61.70;;;;;;4117495;28;20015;-71
2022/02/11 11:17:46;;;;;;;4.32;1.95;;;26.30;61.50;;;;;;4104450;28;20096;-71
2022/02/11 11:20:09;;;;;;;;;;;26.20;61.00;;;;;;4107091;28;20128;-72
2022/02/11 11:22:59;;;;;;;4.03;1.75;;;26.20;61.60;;;;;;4112614;28;19931;-72
2022/02/11 11:25:21;;;;;;;5.80;2.17;;;26.20;61.50;;;;;;4106811;28;20045;-72
2022/02/11 11:27:53;;;;;;;5.60;1.90;;;26.20;61.20;;;;;;4102834;28;20069;-71
2022/02/11 11:30:40;;;;;;;6.53;2.10;;;26.20;61.30;;;;;;4111271;28;20187;-72
2022/02/11 11:33:05;;;;;;;3.33;1.42;;;26.10;62.10;;;;;;4109027;28;20026;-73
2022/02/11 11:35:28;;;;;;;4.53;1.75;;;26.20;61.20;;;;;;4114027;28;20041;-72
2022/02/11 11:38:16;;;;;;;4.07;1.92;;;26.10;61.20;;;;;;4110307;28;20049;-71
2022/02/11 11:40:58;;;;;;;3.92;1.70;;;26.10;61.40;;;;;;4111824;28;20052;-71
2022/02/11 11:43:38;;;;;;;4.35;2.05;;;26.10;61.30;;;;;;4107473;28;20156;-71
2022/02/11 11:46:20;;;;;;;4.82;1.45;;;26.10;61.40;;;;;;4102670;28;20336;-71
2022/02/11 11:49:14;;;;;;;5.93;1.88;;;26.10;61.50;;;;;;4101250;28;20045;-70
2022/02/11 11:51:40;;;;;;;6.70;2.00;;;26.10;61.50;;;;;;4107554;28;20144;-70
2022/02/11 11:54:17;;;;;;;4.43;1.50;;;26.10;61.50;;;;;;4105942;28;20034;-71
2022/02/11 11:56:42;;;;;;;3.97;1.70;;;26.10;61.50;;;;;;4112616;28;20402;-71
2022/02/11 11:59:22;;;;;;;4.05;1.90;;;26.00;61.40;;;;;;4105186;28;20096;-76
2022/02/11 12:02:04;;;;;;;2.92;1.70;;;26.00;61.50;;;;;;4109022;28;20052;-77
2022/02/11 12:04:31;;;;;;;5.03;2.13;;;26.00;61.70;;;;;;4112672;28;20045;-77
2022/02/11 12:07:00;;;;;;;5.95;2.08;;;26.00;61.60;;;;;;4104096;28;20033;-75
2022/02/11 12:09:24;;;;;;;5.68;2.03;;;26.00;61.70;;;;;;4114404;28;20167;-75
2022/02/11 12:11:47;;;;;;;5.10;2.00;;;26.00;61.80;;;;;;4103286;28;20037;-76
2022/02/11 12:14:10;;;;;;;4.05;1.92;;;26.00;61.90;;;;;;4104843;28;20079;-75
2022/02/11 12:16:33;;;;;;;4.17;2.00;;;26.00;62.00;;;;;;4112538;28;20506;-70
2022/02/11 12:18:56;;;;;;;4.23;2.10;;;26.00;61.90;;;;;;4102284;28;20499;-70
2022/02/11 12:21:19;;;;;;;7.00;2.85;;;26.00;62.00;;;;;;4101408;28;20045;-69
2022/02/11 12:29:04;;;;;;;6.00;2.20;;;26.00;62.80;;;;;;4103275;28;21192;-69
2022/02/11 12:31:29;;;;;;;5.00;2.30;;;25.90;62.20;;;;;;4109880;28;20052;-71
2022/02/11 12:33:52;;;;;;;4.28;2.00;;;25.90;62.20;;;;;;4101829;28;20041;-70
2022/02/11 12:36:14;;;;;;;11.67;2.57;;;;;;;;;;4101008;28;20041;-68
2022/02/11 12:38:37;;;;;;;6.63;2.25;;;25.90;62.60;;;;;;4106167;28;20041;-70
2022/02/11 12:41:00;;;;;;;7.97;2.22;;;25.90;63.60;;;;;;4097996;28;20151;-68
2022/02/11 12:43:26;;;;;;;12.27;1.92;;;25.90;63.60;;;;;;4095241;28;20037;-68
2022/02/11 12:45:48;;;;;;;4.00;1.65;;;25.90;63.70;;;;;;4105224;28;20352;-69
2022/02/11 12:48:14;;;;;;;5.30;1.88;;;25.90;63.50;;;;;;4097149;28;20041;-68
2022/02/11 12:50:41;;;;;;;4.53;1.77;;;26.00;63.80;;;;;;4103114;28;20050;-68
2022/02/11 12:53:06;;;;;;;3.60;1.80;;;25.90;63.60;;;;;;4103043;28;20091;-78
2022/02/11 12:55:32;;;;;;;4.07;1.88;;;26.00;64.00;;;;;;4102589;28;20419;-81
2022/02/11 12:57:58;;;;;;;5.00;1.90;;;26.00;63.80;;;;;;4109851;28;20042;-78
2022/02/11 13:00:27;;;;;;;5.93;1.92;;;26.00;63.80;;;;;;4103380;28;20044;-79
2022/02/11 13:02:50;;;;;;;4.55;1.60;;;26.00;63.90;;;;;;4107350;28;20307;-78
2022/02/11 13:05:15;;;;;;;4.60;1.87;;;26.00;63.90;;;;;;4105140;28;20030;-76
2022/02/11 13:07:41;;;;;;;3.03;1.50;;;26.00;63.70;;;;;;4104708;28;20042;-76
2022/02/11 13:10:06;;;;;;;5.10;1.90;;;26.00;63.30;;;;;;4115288;28;20103;-76
2022/02/11 13:12:39;;;;;;;5.03;1.58;;;26.00;63.00;;;;;;4108785;28;20037;-73
2022/02/11 13:15:05;;;;;;;5.13;2.08;;;26.00;62.80;;;;;;4122678;28;20908;-70
2022/02/11 13:17:30;;;;;;;10.52;2.13;;;26.00;63.40;;;;;;4106901;28;20045;-70
2022/02/11 13:20:03;;;;;;;11.05;2.20;;;26.00;63.80;;;;;;4116518;28;20065;-71
2022/02/11 13:22:26;;;;;;;8.60;1.88;;;26.00;63.90;;;;;;4106178;28;20056;-70
2022/02/11 13:24:49;;;;;;;6.95;1.73;;;26.00;64.20;;;;;;4114410;28;20849;-72
2022/02/11 13:27:12;;;;;;;7.18;1.85;;;26.00;64.70;;;;;;4111567;28;20057;-70
2022/02/11 13:29:34;;;;;;;7.93;1.85;;;26.00;64.40;;;;;;4108768;28;20038;-77
2022/02/11 13:31:58;;;;;;;6.85;1.75;;;26.00;64.10;;;;;;4113836;28;20185;-77
2022/02/11 13:34:21;;;;;;;5.30;1.80;;;26.10;64.20;;;;;;4109978;28;20037;-75
2022/02/11 13:36:48;;;;;;;10.95;1.70;;;26.10;64.00;;;;;;4103957;28;20132;-78
2022/02/11 13:39:10;;;;;;;4.25;1.50;;;26.10;64.00;;;;;;4126349;28;20044;-75
2022/02/11 13:41:38;;;;;;;4.70;1.67;;;26.10;63.90;;;;;;4106054;28;20658;-76
2022/02/11 13:44:07;;;;;;;4.88;1.50;;;26.10;63.80;;;;;;4113063;28;20136;-78
2022/02/11 13:46:32;;;;;;;10.10;1.85;;;26.10;63.60;;;;;;4115194;28;20164;-79
2022/02/11 13:49:15;;;;;;;12.40;2.10;;;26.10;63.60;;;;;;4113708;28;20046;-71
2022/02/11 13:51:40;;;;;;;6.22;1.42;;;26.10;63.50;;;;;;4123498;28;20049;-67
2022/02/11 13:54:16;;;;;;;3.00;1.23;;;26.00;63.20;;;;;;4118552;28;20146;-67
2022/02/11 13:56:41;;;;;;;4.63;1.60;;;26.00;63.10;;;;;;4111508;28;20045;-72
2022/02/11 13:59:10;;;;;;;4.82;2.03;;;26.00;63.20;;;;;;4117878;28;20985;-70
2022/02/11 14:01:34;;;;;;;5.13;1.63;;;26.00;63.00;;;;;;4110990;28;20149;-71
2022/02/11 14:04:24;;;;;;;4.45;1.35;;;26.00;63.00;;;;;;4121726;28;20030;-71
2022/02/11 14:06:50;;;;;;;2.38;1.20;;;26.00;62.80;;;;;;4118313;28;20132;-69
2022/02/11 14:09:28;;;;;;;5.88;1.35;;;26.00;62.80;;;;;;4110178;28;20402;-70
2022/02/11 14:11:51;;;;;;;3.38;1.10;;;26.00;62.60;;;;;;4121302;28;20041;-66
2022/02/11 14:14:17;;;;;;;4.18;0.93;;;26.00;62.50;;;;;;4107386;28;21277;-70
2022/02/11 14:16:41;;;;;;;5.25;1.50;;;26.00;62.40;;;;;;4114195;28;20037;-70
2022/02/11 14:19:03;;;;;;;4.60;0.90;;;26.00;62.60;;;;;;4120808;28;20037;-71
2022/02/11 14:21:26;;;;;;;3.08;1.10;;;26.00;62.50;;;;;;4125606;28;20038;-68
2022/02/11 14:23:49;;;;;;;1.73;1.00;;;26.00;62.50;;;;;;4114789;28;20678;-71
2022/02/11 14:26:11;;;;;;;2.08;1.10;;;25.90;62.30;;;;;;4107105;28;20046;-71
2022/02/11 14:28:34;;;;;;;2.65;1.02;;;26.00;62.40;;;;;;4110658;28;20069;-68
2022/02/11 14:30:58;;;;;;;3.63;1.00;;;25.90;62.40;;;;;;4113354;28;20041;-71
2022/02/11 14:33:21;;;;;;;5.88;1.58;;;25.90;62.30;;;;;;4106319;28;20064;-71
2022/02/11 14:35:44;;;;;;;5.40;1.25;;;25.90;62.30;;;;;;4108826;28;20127;-71
2022/02/11 14:38:06;;;;;;;1.67;0.95;;;25.90;62.30;;;;;;4111988;28;20136;-69
2022/02/11 14:40:29;;;;;;;3.80;1.38;;;25.90;62.30;;;;;;4104290;28;20033;-70
2022/02/11 14:42:51;;;;;;;6.00;1.40;;;25.90;62.30;;;;;;4107454;28;20042;-78
2022/02/11 14:45:14;;;;;;;2.55;1.20;;;25.90;62.10;;;;;;4111731;28;20045;-75
2022/02/11 14:47:36;;;;;;;4.35;1.27;;;25.90;62.10;;;;;;4098592;28;20100;-74
2022/02/11 14:49:59;;;;;;;2.40;0.98;;;25.90;62.60;;;;;;4096696;28;20041;-75
2022/02/11 14:52:21;;;;;;;2.20;0.80;;;25.80;62.10;;;;;;4126429;28;20032;-75
2022/02/11 14:54:44;;;;;;;2.35;1.00;;;25.90;62.00;;;;;;4101935;28;20384;-76
2022/02/11 14:57:07;;;;;;;4.38;0.93;;;25.80;61.80;;;;;;4102789;28;20080;-75
2022/02/11 14:59:30;;;;;;;2.03;1.10;;;25.80;61.80;;;;;;4113187;28;20053;-75
2022/02/11 15:01:55;;;;;;;4.60;1.27;;;25.80;61.90;;;;;;4103475;28;21776;-76
2022/02/11 15:04:17;;;;;;;1.02;0.70;;;25.80;61.90;;;;;;4104093;28;22131;-74
2022/02/11 15:06:40;;;;;;;2.65;0.93;;;25.80;61.40;;;;;;4110861;28;20107;-75
2022/02/11 15:09:03;;;;;;;2.63;0.85;;;25.80;61.90;;;;;;4102950;28;20071;-77
2022/02/11 15:11:27;;;;;;;1.90;0.82;;;25.80;61.80;;;;;;4117096;28;20075;-77
2022/02/11 15:13:50;;;;;;;2.10;1.00;;;25.80;61.90;;;;;;4123948;28;20183;-75
2022/02/11 15:16:12;;;;;;;2.47;1.48;;;25.80;62.40;;;;;;4102244;28;20033;-76
2022/02/11 15:18:35;;;;;;;2.90;1.15;;;25.80;62.90;;;;;;4103747;28;20045;-76
2022/02/11 15:21:05;;;;;;;2.20;1.00;;;25.80;62.20;;;;;;4110659;28;20046;-76
2022/02/11 15:23:27;;;;;;;5.22;1.33;;;25.80;62.10;;;;;;4113297;28;20029;-75
2022/02/11 15:25:50;;;;;;;1.75;0.88;;;25.80;62.10;;;;;;4116432;28;20046;-75
2022/02/11 15:28:12;;;;;;;5.75;1.80;;;25.70;61.90;;;;;;4114583;28;20044;-77
2022/02/11 15:30:35;;;;;;;2.80;1.10;;;25.70;61.80;;;;;;4101016;28;21245;-74
2022/02/11 15:32:57;;;;;;;3.35;1.15;;;25.80;62.60;;;;;;4110167;28;20073;-75
2022/02/11 15:35:20;;;;;;;2.40;1.23;;;25.70;61.80;;;;;;4100263;28;20192;-79
2022/02/11 15:37:42;;;;;;;3.22;1.17;;;25.80;62.00;;;;;;4117741;28;20049;-77
2022/02/11 15:40:06;;;;;;;5.50;1.52;;;25.70;61.80;;;;;;4111515;28;20042;-76
2022/02/11 15:42:29;;;;;;;3.03;1.05;;;25.70;61.80;;;;;;4103520;28;20038;-73
2022/02/11 15:44:51;;;;;;;2.92;1.13;;;25.80;61.80;;;;;;4102927;28;20216;-77
2022/02/11 15:47:14;;;;;;;5.30;1.00;;;25.70;61.70;;;;;;4111605;28;20064;-72
2022/02/11 15:49:36;;;;;;;2.53;1.08;;;25.70;62.40;;;;;;4101984;28;20117;-77
2022/02/11 15:51:59;;;;;;;5.35;1.33;;;25.70;61.70;;;;;;4100712;28;20041;-77
2022/02/11 15:54:21;;;;;;;4.03;1.23;;;25.70;61.70;;;;;;4102353;28;21248;-78
2022/02/11 15:56:44;;;;;;;3.20;1.23;;;25.70;61.80;;;;;;4114822;28;20052;-76
2022/02/11 15:59:06;;;;;;;2.15;1.08;;;25.70;61.60;;;;;;4131362;28;20038;-72
2022/02/11 16:01:28;;;;;;;2.22;1.00;;;25.70;61.50;;;;;;4135217;28;20698;-72
2022/02/11 16:03:51;;;;;;;2.67;0.80;;;25.70;61.50;;;;;;4129104;28;20030;-71
2022/02/11 16:06:13;;;;;;;1.08;0.70;;;25.70;61.50;;;;;;4134163;28;20080;-71
2022/02/11 16:08:36;;;;;;;3.47;0.98;;;25.70;62.10;;;;;;4137117;28;20108;-72
2022/02/11 16:11:00;;;;;;;1.92;0.98;;;25.60;61.20;;;;;;4136388;28;20491;-71
2022/02/11 16:13:22;;;;;;;2.17;1.23;;;25.60;61.20;;;;;;4137721;28;20034;-72
2022/02/11 16:15:45;;;;;;;1.92;1.05;;;25.60;61.10;;;;;;4137820;28;20052;-69
2022/02/11 16:18:14;;;;;;;4.55;1.10;;;25.60;61.20;;;;;;4122256;28;20136;-77
2022/02/11 16:20:43;;;;;;;2.33;0.90;;;25.60;61.10;;;;;;4127309;28;20038;-78
2022/02/11 16:23:08;;;;;;;2.15;1.05;;;25.60;61.30;;;;;;4138061;28;20745;-77